sensor_id;sensor_type;location;lat;lon;timestamp;pressure;altitude;pressure_sealevel;temperature;humidity
23229;BME280;11783;50.350;6.576;2023-02-10T00:01:42;97932.22;;;-0.68;82.14
23229;BME280;11783;50.350;6.576;2023-02-10T00:04:10;97938.94;;;-0.66;81.51
23229;BME280;11783;50.350;6.576;2023-02-10T00:06:36;97931.38;;;-0.69;83.50
23229;BME280;11783;50.350;6.576;2023-02-10T00:09:03;97933.31;;;-0.71;82.22
23229;BME280;11783;50.350;6.576;2023-02-10T00:11:29;97938.25;;;-0.68;82.01
23229;BME280;11783;50.350;6.576;2023-02-10T00:14:15;97943.09;;;-0.63;81.72
23229;BME280;11783;50.350;6.576;2023-02-10T00:16:41;97949.25;;;-0.64;82.73
23229;BME280;11783;50.350;6.576;2023-02-10T00:19:06;97948.44;;;-0.65;82.87
23229;BME280;11783;50.350;6.576;2023-02-10T00:21:32;97952.56;;;-0.62;81.92
23229;BME280;11783;50.350;6.576;2023-02-10T00:23:58;97949.41;;;-0.66;82.11
23229;BME280;11783;50.350;6.576;2023-02-10T00:26:23;97955.31;;;-0.64;81.95
23229;BME280;11783;50.350;6.576;2023-02-10T00:29:00;97954.34;;;-0.63;81.70
23229;BME280;11783;50.350;6.576;2023-02-10T00:31:25;97959.44;;;-0.61;81.70
23229;BME280;11783;50.350;6.576;2023-02-10T00:33:50;97960.81;;;-0.57;82.53
23229;BME280;11783;50.350;6.576;2023-02-10T00:36:16;97953.72;;;-0.55;87.80
23229;BME280;11783;50.350;6.576;2023-02-10T00:38:42;97959.03;;;-0.56;85.90
23229;BME280;11783;50.350;6.576;2023-02-10T00:41:15;97951.09;;;-0.55;85.61
23229;BME280;11783;50.350;6.576;2023-02-10T00:43:41;97961.00;;;-0.49;91.06
23229;BME280;11783;50.350;6.576;2023-02-10T00:46:17;97958.81;;;-0.44;90.00
23229;BME280;11783;50.350;6.576;2023-02-10T00:48:44;97953.47;;;-0.42;90.80
23229;BME280;11783;50.350;6.576;2023-02-10T00:51:10;97957.38;;;-0.37;90.96
23229;BME280;11783;50.350;6.576;2023-02-10T00:53:36;97972.78;;;-0.34;91.40
23229;BME280;11783;50.350;6.576;2023-02-10T00:56:04;97966.19;;;-0.28;91.37
23229;BME280;11783;50.350;6.576;2023-02-10T00:58:29;97965.38;;;-0.19;92.17
23229;BME280;11783;50.350;6.576;2023-02-10T01:00:55;97965.00;;;-0.14;92.03
23229;BME280;11783;50.350;6.576;2023-02-10T01:03:21;97961.28;;;-0.12;90.96
23229;BME280;11783;50.350;6.576;2023-02-10T01:05:47;97976.97;;;-0.12;88.66
23229;BME280;11783;50.350;6.576;2023-02-10T01:08:13;97975.31;;;-0.13;87.58
23229;BME280;11783;50.350;6.576;2023-02-10T01:10:39;97971.47;;;-0.09;88.73
23229;BME280;11783;50.350;6.576;2023-02-10T01:13:06;97983.28;;;-0.05;88.45
23229;BME280;11783;50.350;6.576;2023-02-10T01:15:32;97981.22;;;-0.01;91.06
23229;BME280;11783;50.350;6.576;2023-02-10T01:17:58;97981.38;;;-0.03;89.69
23229;BME280;11783;50.350;6.576;2023-02-10T01:20:24;97986.59;;;-0.03;89.49
23229;BME280;11783;50.350;6.576;2023-02-10T01:22:50;97985.78;;;-0.03;89.79
23229;BME280;11783;50.350;6.576;2023-02-10T01:25:15;97988.53;;;-0.05;87.91
23229;BME280;11783;50.350;6.576;2023-02-10T01:27:40;97989.63;;;-0.07;88.06
23229;BME280;11783;50.350;6.576;2023-02-10T01:30:06;97983.59;;;0.02;91.48
23229;BME280;11783;50.350;6.576;2023-02-10T01:32:31;97988.44;;;0.07;91.86
23229;BME280;11783;50.350;6.576;2023-02-10T01:34:57;97998.19;;;0.05;88.76
23229;BME280;11783;50.350;6.576;2023-02-10T01:37:22;97990.50;;;0.03;87.70
23229;BME280;11783;50.350;6.576;2023-02-10T01:39:47;97996.41;;;0.05;89.61
23229;BME280;11783;50.350;6.576;2023-02-10T01:42:14;97997.22;;;0.06;89.45
23229;BME280;11783;50.350;6.576;2023-02-10T01:47:06;98001.63;;;0.05;86.57
23229;BME280;11783;50.350;6.576;2023-02-10T01:49:35;97999.44;;;0.01;88.36
23229;BME280;11783;50.350;6.576;2023-02-10T01:52:15;98009.16;;;-0.02;86.98
23229;BME280;11783;50.350;6.576;2023-02-10T01:54:45;98006.16;;;0.03;89.41
23229;BME280;11783;50.350;6.576;2023-02-10T01:57:12;98004.25;;;0.05;88.48
23229;BME280;11783;50.350;6.576;2023-02-10T01:59:39;98007.00;;;0.13;95.43
23229;BME280;11783;50.350;6.576;2023-02-10T02:02:10;98002.34;;;0.17;96.44
23229;BME280;11783;50.350;6.576;2023-02-10T02:04:59;98007.03;;;0.23;100.00
23229;BME280;11783;50.350;6.576;2023-02-10T02:07:31;98003.31;;;0.25;99.75
23229;BME280;11783;50.350;6.576;2023-02-10T02:09:59;98002.22;;;0.28;99.78
23229;BME280;11783;50.350;6.576;2023-02-10T02:12:51;98006.78;;;0.26;97.67
23229;BME280;11783;50.350;6.576;2023-02-10T02:17:58;98010.91;;;0.28;99.00
23229;BME280;11783;50.350;6.576;2023-02-10T02:23:26;98008.31;;;0.38;100.00
23229;BME280;11783;50.350;6.576;2023-02-10T02:29:42;98012.31;;;0.42;100.00
23229;BME280;11783;50.350;6.576;2023-02-10T02:31:51;98002.53;;;0.44;97.98
23229;BME280;11783;50.350;6.576;2023-02-10T02:37:00;98002.38;;;0.55;98.66
23229;BME280;11783;50.350;6.576;2023-02-10T02:39:28;98005.97;;;0.54;99.22
23229;BME280;11783;50.350;6.576;2023-02-10T02:42:13;98006.53;;;0.58;97.82
23229;BME280;11783;50.350;6.576;2023-02-10T02:44:40;98009.03;;;0.59;96.45
23229;BME280;11783;50.350;6.576;2023-02-10T02:47:28;98013.56;;;0.57;96.34
23229;BME280;11783;50.350;6.576;2023-02-10T02:53:32;98017.69;;;0.70;97.87
23229;BME280;11783;50.350;6.576;2023-02-10T02:56:35;98021.13;;;0.70;98.43
23229;BME280;11783;50.350;6.576;2023-02-10T03:01:49;98016.59;;;0.72;97.32
23229;BME280;11783;50.350;6.576;2023-02-10T03:04:17;98014.25;;;0.69;97.65
23229;BME280;11783;50.350;6.576;2023-02-10T03:06:42;98014.09;;;0.71;98.03
23229;BME280;11783;50.350;6.576;2023-02-10T03:09:08;98024.28;;;0.74;100.00
23229;BME280;11783;50.350;6.576;2023-02-10T03:11:34;98022.41;;;0.76;100.00
23229;BME280;11783;50.350;6.576;2023-02-10T03:13:59;98016.34;;;0.75;100.00
23229;BME280;11783;50.350;6.576;2023-02-10T03:16:27;98016.88;;;0.79;99.26
23229;BME280;11783;50.350;6.576;2023-02-10T03:18:53;98012.31;;;0.81;100.00
23229;BME280;11783;50.350;6.576;2023-02-10T03:21:18;98012.06;;;0.84;100.00
23229;BME280;11783;50.350;6.576;2023-02-10T03:23:47;98016.31;;;0.85;100.00
23229;BME280;11783;50.350;6.576;2023-02-10T03:26:12;98014.66;;;0.84;100.00
23229;BME280;11783;50.350;6.576;2023-02-10T03:28:38;98017.28;;;0.84;98.45
23229;BME280;11783;50.350;6.576;2023-02-10T03:31:07;98008.03;;;0.89;100.00
23229;BME280;11783;50.350;6.576;2023-02-10T03:33:34;98012.31;;;0.90;100.00
23229;BME280;11783;50.350;6.576;2023-02-10T03:36:04;98015.34;;;0.86;100.00
23229;BME280;11783;50.350;6.576;2023-02-10T03:38:29;98023.59;;;0.91;100.00
23229;BME280;11783;50.350;6.576;2023-02-10T03:40:55;98028.69;;;0.93;100.00
23229;BME280;11783;50.350;6.576;2023-02-10T03:43:21;98023.34;;;0.94;100.00
23229;BME280;11783;50.350;6.576;2023-02-10T03:45:47;98032.84;;;0.95;100.00
23229;BME280;11783;50.350;6.576;2023-02-10T03:48:12;98036.16;;;0.97;100.00
23229;BME280;11783;50.350;6.576;2023-02-10T03:50:40;98035.19;;;0.98;100.00
23229;BME280;11783;50.350;6.576;2023-02-10T03:53:05;98044.03;;;0.97;100.00
23229;BME280;11783;50.350;6.576;2023-02-10T03:55:31;98045.53;;;1.00;98.52
23229;BME280;11783;50.350;6.576;2023-02-10T03:57:56;98041.13;;;1.00;99.09
23229;BME280;11783;50.350;6.576;2023-02-10T04:00:22;98048.00;;;1.01;98.17
23229;BME280;11783;50.350;6.576;2023-02-10T04:02:48;98045.38;;;1.01;98.32
23229;BME280;11783;50.350;6.576;2023-02-10T04:05:13;98036.56;;;1.02;98.21
23229;BME280;11783;50.350;6.576;2023-02-10T04:07:39;98040.16;;;1.01;97.81
23229;BME280;11783;50.350;6.576;2023-02-10T04:10:04;98040.16;;;1.01;97.57
23229;BME280;11783;50.350;6.576;2023-02-10T04:12:30;98043.47;;;1.03;97.94
23229;BME280;11783;50.350;6.576;2023-02-10T04:14:55;98046.75;;;1.05;98.49
23229;BME280;11783;50.350;6.576;2023-02-10T04:17:21;98052.81;;;1.06;99.56
23229;BME280;11783;50.350;6.576;2023-02-10T04:19:46;98046.19;;;1.11;99.33
23229;BME280;11783;50.350;6.576;2023-02-10T04:22:11;98049.78;;;1.10;98.65
23229;BME280;11783;50.350;6.576;2023-02-10T04:24:36;98047.16;;;1.10;97.72
23229;BME280;11783;50.350;6.576;2023-02-10T04:27:02;98049.78;;;1.10;96.15
23229;BME280;11783;50.350;6.576;2023-02-10T04:29:27;98046.47;;;1.08;96.47
23229;BME280;11783;50.350;6.576;2023-02-10T04:31:53;98051.16;;;1.05;95.62
23229;BME280;11783;50.350;6.576;2023-02-10T04:34:18;98039.03;;;1.04;94.83
23229;BME280;11783;50.350;6.576;2023-02-10T04:36:43;98049.66;;;1.02;95.24
23229;BME280;11783;50.350;6.576;2023-02-10T04:39:09;98046.34;;;1.00;96.06
23229;BME280;11783;50.350;6.576;2023-02-10T04:41:34;98046.78;;;0.96;95.93
23229;BME280;11783;50.350;6.576;2023-02-10T04:43:59;98044.28;;;0.94;95.41
23229;BME280;11783;50.350;6.576;2023-02-10T04:46:25;98036.69;;;0.91;95.64
23229;BME280;11783;50.350;6.576;2023-02-10T04:48:50;98037.94;;;0.87;95.87
23229;BME280;11783;50.350;6.576;2023-02-10T04:51:16;98034.63;;;0.85;95.20
23229;BME280;11783;50.350;6.576;2023-02-10T04:53:41;98042.09;;;0.80;94.55
23229;BME280;11783;50.350;6.576;2023-02-10T04:56:09;98035.06;;;0.80;95.68
23229;BME280;11783;50.350;6.576;2023-02-10T04:58:35;98026.66;;;0.77;95.68
23229;BME280;11783;50.350;6.576;2023-02-10T05:01:00;98010.13;;;0.76;96.10
23229;BME280;11783;50.350;6.576;2023-02-10T05:03:25;98018.13;;;0.75;96.85
23229;BME280;11783;50.350;6.576;2023-02-10T05:05:51;98017.41;;;0.73;97.06
23229;BME280;11783;50.350;6.576;2023-02-10T05:08:18;98018.13;;;0.75;95.29
23229;BME280;11783;50.350;6.576;2023-02-10T05:10:52;98022.13;;;0.79;96.63
23229;BME280;11783;50.350;6.576;2023-02-10T05:13:18;98018.94;;;0.75;94.95
23229;BME280;11783;50.350;6.576;2023-02-10T05:15:44;98025.25;;;0.73;94.93
23229;BME280;11783;50.350;6.576;2023-02-10T05:18:10;98017.41;;;0.73;95.49
23229;BME280;11783;50.350;6.576;2023-02-10T05:20:36;98018.78;;;0.67;94.72
23229;BME280;11783;50.350;6.576;2023-02-10T05:23:01;98021.53;;;0.66;95.17
23229;BME280;11783;50.350;6.576;2023-02-10T05:25:27;98029.69;;;0.63;95.64
23229;BME280;11783;50.350;6.576;2023-02-10T05:27:53;98027.06;;;0.63;95.21
23229;BME280;11783;50.350;6.576;2023-02-10T05:30:18;98035.31;;;0.68;97.76
23229;BME280;11783;50.350;6.576;2023-02-10T05:32:43;98038.75;;;0.68;97.06
23229;BME280;11783;50.350;6.576;2023-02-10T05:35:09;98032.16;;;0.64;97.58
23229;BME280;11783;50.350;6.576;2023-02-10T05:37:35;98032.56;;;0.69;98.21
23229;BME280;11783;50.350;6.576;2023-02-10T05:40:00;98039.72;;;0.67;95.28
23229;BME280;11783;50.350;6.576;2023-02-10T05:42:26;98039.44;;;0.70;96.07
23229;BME280;11783;50.350;6.576;2023-02-10T05:44:51;98039.72;;;0.67;95.72
23229;BME280;11783;50.350;6.576;2023-02-10T05:47:17;98036.28;;;0.67;94.93
23229;BME280;11783;50.350;6.576;2023-02-10T05:49:42;98047.44;;;0.69;94.80
23229;BME280;11783;50.350;6.576;2023-02-10T05:52:07;98044.97;;;0.67;94.73
23229;BME280;11783;50.350;6.576;2023-02-10T05:54:33;98048.41;;;0.68;93.39
23229;BME280;11783;50.350;6.576;2023-02-10T05:56:58;98051.84;;;0.68;92.94
23229;BME280;11783;50.350;6.576;2023-02-10T05:59:23;98049.38;;;0.67;93.07
23229;BME280;11783;50.350;6.576;2023-02-10T06:01:49;98051.69;;;0.70;93.31
23229;BME280;11783;50.350;6.576;2023-02-10T06:04:14;98054.47;;;0.68;95.21
23229;BME280;11783;50.350;6.576;2023-02-10T06:06:39;98046.88;;;0.65;97.44
23229;BME280;11783;50.350;6.576;2023-02-10T06:09:05;98057.75;;;0.70;97.04
23229;BME280;11783;50.350;6.576;2023-02-10T06:11:31;98058.03;;;0.67;94.50
23229;BME280;11783;50.350;6.576;2023-02-10T06:13:56;98061.22;;;0.71;93.81
23229;BME280;11783;50.350;6.576;2023-02-10T06:16:22;98055.16;;;0.70;94.10
23229;BME280;11783;50.350;6.576;2023-02-10T06:18:47;98071.00;;;0.69;93.31
23229;BME280;11783;50.350;6.576;2023-02-10T06:21:14;98071.13;;;0.67;94.31
23229;BME280;11783;50.350;6.576;2023-02-10T06:23:40;98070.16;;;0.58;94.37
23229;BME280;11783;50.350;6.576;2023-02-10T06:26:05;98063.28;;;0.57;97.33
23229;BME280;11783;50.350;6.576;2023-02-10T06:28:30;98065.75;;;0.59;96.01
23229;BME280;11783;50.350;6.576;2023-02-10T06:30:57;98081.59;;;0.57;96.52
23229;BME280;11783;50.350;6.576;2023-02-10T06:33:22;98080.34;;;0.62;98.93
23229;BME280;11783;50.350;6.576;2023-02-10T06:35:47;98081.03;;;0.64;100.00
23229;BME280;11783;50.350;6.576;2023-02-10T06:38:13;98078.97;;;0.67;100.00
23229;BME280;11783;50.350;6.576;2023-02-10T06:40:38;98080.63;;;0.68;100.00
23229;BME280;11783;50.350;6.576;2023-02-10T06:43:04;98078.44;;;0.64;100.00
23229;BME280;11783;50.350;6.576;2023-02-10T06:45:29;98086.09;;;0.55;99.03
23229;BME280;11783;50.350;6.576;2023-02-10T06:47:55;98086.69;;;0.59;100.00
23229;BME280;11783;50.350;6.576;2023-02-10T06:50:21;98087.22;;;0.53;100.00
23229;BME280;11783;50.350;6.576;2023-02-10T06:52:47;98077.84;;;0.50;99.34
23229;BME280;11783;50.350;6.576;2023-02-10T06:55:13;98079.94;;;0.56;100.00
23229;BME280;11783;50.350;6.576;2023-02-10T06:57:38;98081.72;;;0.66;100.00
23229;BME280;11783;50.350;6.576;2023-02-10T07:00:06;98081.47;;;0.69;100.00
23229;BME280;11783;50.350;6.576;2023-02-10T07:02:33;98077.59;;;0.73;100.00
23229;BME280;11783;50.350;6.576;2023-02-10T07:04:58;98081.03;;;0.73;100.00
23229;BME280;11783;50.350;6.576;2023-02-10T07:07:24;98076.91;;;0.71;100.00
23229;BME280;11783;50.350;6.576;2023-02-10T07:09:49;98094.03;;;0.75;100.00
23229;BME280;11783;50.350;6.576;2023-02-10T07:12:18;98088.91;;;0.83;100.00
23229;BME280;11783;50.350;6.576;2023-02-10T07:14:43;98094.84;;;0.85;100.00
23229;BME280;11783;50.350;6.576;2023-02-10T07:17:10;98092.09;;;0.86;100.00
23229;BME280;11783;50.350;6.576;2023-02-10T07:19:35;98091.25;;;0.86;100.00
23229;BME280;11783;50.350;6.576;2023-02-10T07:22:01;98095.81;;;0.84;100.00
23229;BME280;11783;50.350;6.576;2023-02-10T07:24:30;98101.19;;;0.82;100.00
23229;BME280;11783;50.350;6.576;2023-02-10T07:26:55;98106.41;;;0.92;100.00
23229;BME280;11783;50.350;6.576;2023-02-10T07:29:21;98107.13;;;0.94;100.00
23229;BME280;11783;50.350;6.576;2023-02-10T07:31:46;98112.38;;;0.94;100.00
23229;BME280;11783;50.350;6.576;2023-02-10T07:34:11;98113.31;;;0.93;100.00
23229;BME280;11783;50.350;6.576;2023-02-10T07:36:37;98119.63;;;0.90;100.00
23229;BME280;11783;50.350;6.576;2023-02-10T07:39:02;98118.44;;;0.95;100.00
23229;BME280;11783;50.350;6.576;2023-02-10T07:41:27;98121.19;;;1.03;100.00
23229;BME280;11783;50.350;6.576;2023-02-10T07:43:53;98128.06;;;1.04;100.00
23229;BME280;11783;50.350;6.576;2023-02-10T07:46:18;98128.34;;;1.01;100.00
23229;BME280;11783;50.350;6.576;2023-02-10T07:48:44;98128.63;;;0.98;100.00
23229;BME280;11783;50.350;6.576;2023-02-10T07:51:09;98130.56;;;0.96;100.00
23229;BME280;11783;50.350;6.576;2023-02-10T07:53:34;98135.38;;;1.00;100.00
23229;BME280;11783;50.350;6.576;2023-02-10T07:56:03;98136.19;;;1.01;100.00
23229;BME280;11783;50.350;6.576;2023-02-10T07:58:28;98130.69;;;1.04;100.00
23229;BME280;11783;50.350;6.576;2023-02-10T08:00:55;98132.06;;;1.08;100.00
23229;BME280;11783;50.350;6.576;2023-02-10T08:03:20;98135.81;;;1.15;100.00
23229;BME280;11783;50.350;6.576;2023-02-10T08:05:45;98138.97;;;1.18;100.00
23229;BME280;11783;50.350;6.576;2023-02-10T08:08:12;98142.41;;;1.19;100.00
23229;BME280;11783;50.350;6.576;2023-02-10T08:10:38;98133.16;;;1.25;100.00
23229;BME280;11783;50.350;6.576;2023-02-10T08:13:04;98126.69;;;1.29;100.00
23229;BME280;11783;50.350;6.576;2023-02-10T08:15:29;98135.25;;;1.31;100.00
23229;BME280;11783;50.350;6.576;2023-02-10T08:17:55;98128.22;;;1.41;100.00
23229;BME280;11783;50.350;6.576;2023-02-10T08:20:20;98129.84;;;1.42;100.00
23229;BME280;11783;50.350;6.576;2023-02-10T08:22:45;98123.13;;;1.39;100.00
23229;BME280;11783;50.350;6.576;2023-02-10T08:25:11;98128.22;;;1.41;100.00
23229;BME280;11783;50.350;6.576;2023-02-10T08:27:36;98132.75;;;1.39;100.00
23229;BME280;11783;50.350;6.576;2023-02-10T08:30:02;98126.56;;;1.40;100.00
23229;BME280;11783;50.350;6.576;2023-02-10T08:32:30;98122.53;;;1.45;100.00
23229;BME280;11783;50.350;6.576;2023-02-10T08:34:56;98126.41;;;1.51;100.00
23229;BME280;11783;50.350;6.576;2023-02-10T08:37:21;98117.03;;;1.58;100.00
23229;BME280;11783;50.350;6.576;2023-02-10T08:39:46;98120.88;;;1.64;100.00
23229;BME280;11783;50.350;6.576;2023-02-10T08:42:12;98117.97;;;1.67;100.00
23229;BME280;11783;50.350;6.576;2023-02-10T08:44:37;98126.25;;;1.72;100.00
23229;BME280;11783;50.350;6.576;2023-02-10T08:47:03;98127.31;;;1.79;100.00
23229;BME280;11783;50.350;6.576;2023-02-10T08:49:28;98121.94;;;1.80;100.00
23229;BME280;11783;50.350;6.576;2023-02-10T08:51:54;98120.56;;;1.86;100.00
23229;BME280;11783;50.350;6.576;2023-02-10T08:54:20;98116.84;;;1.89;100.00
23229;BME280;11783;50.350;6.576;2023-02-10T08:56:46;98120.66;;;1.94;100.00
23229;BME280;11783;50.350;6.576;2023-02-10T08:59:11;98125.63;;;1.97;100.00
23229;BME280;11783;50.350;6.576;2023-02-10T09:01:37;98127.13;;;2.00;100.00
23229;BME280;11783;50.350;6.576;2023-02-10T09:04:03;98114.44;;;2.05;100.00
23229;BME280;11783;50.350;6.576;2023-02-10T09:06:35;98119.25;;;2.09;100.00
23229;BME280;11783;50.350;6.576;2023-02-10T09:09:09;98109.16;;;2.15;100.00
23229;BME280;11783;50.350;6.576;2023-02-10T09:11:35;98108.72;;;2.19;100.00
23229;BME280;11783;50.350;6.576;2023-02-10T09:14:00;98111.19;;;2.21;100.00
23229;BME280;11783;50.350;6.576;2023-02-10T09:16:26;98106.34;;;2.26;100.00
23229;BME280;11783;50.350;6.576;2023-02-10T09:18:54;98105.78;;;2.22;100.00
23229;BME280;11783;50.350;6.576;2023-02-10T09:21:20;98108.00;;;2.27;100.00
23229;BME280;11783;50.350;6.576;2023-02-10T09:23:45;98095.94;;;2.34;100.00
23229;BME280;11783;50.350;6.576;2023-02-10T09:26:11;98099.41;;;2.34;100.00
23229;BME280;11783;50.350;6.576;2023-02-10T09:28:42;98100.06;;;2.36;100.00
23229;BME280;11783;50.350;6.576;2023-02-10T09:31:08;98104.63;;;2.44;100.00
23229;BME280;11783;50.350;6.576;2023-02-10T09:33:35;98109.50;;;2.57;100.00
23229;BME280;11783;50.350;6.576;2023-02-10T09:36:05;98110.06;;;2.60;100.00
23229;BME280;11783;50.350;6.576;2023-02-10T09:38:32;98115.84;;;2.64;100.00
23229;BME280;11783;50.350;6.576;2023-02-10T09:44:20;98112.16;;;2.74;99.99
23229;BME280;11783;50.350;6.576;2023-02-10T09:53:25;98119.69;;;2.87;100.00
23229;BME280;11783;50.350;6.576;2023-02-10T09:55:31;98135.25;;;2.98;100.00
23229;BME280;11783;50.350;6.576;2023-02-10T09:58:19;98136.97;;;3.08;100.00
23229;BME280;11783;50.350;6.576;2023-02-10T10:00:49;98131.56;;;3.09;99.63
23229;BME280;11783;50.350;6.576;2023-02-10T10:03:19;98146.19;;;3.12;98.64
23229;BME280;11783;50.350;6.576;2023-02-10T10:13:49;98163.47;;;3.32;98.18
23229;BME280;11783;50.350;6.576;2023-02-10T10:16:28;98167.47;;;3.36;97.65
23229;BME280;11783;50.350;6.576;2023-02-10T10:22:14;98173.78;;;3.43;98.15
23229;BME280;11783;50.350;6.576;2023-02-10T10:30:45;98188.88;;;3.41;95.23
23229;BME280;11783;50.350;6.576;2023-02-10T10:33:22;98186.25;;;3.41;95.15
23229;BME280;11783;50.350;6.576;2023-02-10T10:35:56;98190.16;;;3.37;96.06
23229;BME280;11783;50.350;6.576;2023-02-10T10:38:30;98186.56;;;3.38;95.68
23229;BME280;11783;50.350;6.576;2023-02-10T10:41:02;98185.88;;;3.36;94.68
23229;BME280;11783;50.350;6.576;2023-02-10T10:43:44;98190.59;;;3.32;95.91
23229;BME280;11783;50.350;6.576;2023-02-10T10:46:49;98198.31;;;3.34;96.11
23229;BME280;11783;50.350;6.576;2023-02-10T10:49:16;98194.59;;;3.37;95.74
23229;BME280;11783;50.350;6.576;2023-02-10T10:51:41;98188.34;;;3.38;96.39
23229;BME280;11783;50.350;6.576;2023-02-10T10:54:12;98199.38;;;3.41;95.52
23229;BME280;11783;50.350;6.576;2023-02-10T10:56:46;98202.69;;;3.43;96.33
23229;BME280;11783;50.350;6.576;2023-02-10T10:59:25;98204.19;;;3.46;94.73
23229;BME280;11783;50.350;6.576;2023-02-10T11:01:55;98204.66;;;3.41;94.86
23229;BME280;11783;50.350;6.576;2023-02-10T11:04:25;98197.88;;;3.39;95.85
23229;BME280;11783;50.350;6.576;2023-02-10T11:06:55;98198.56;;;3.41;96.91
23229;BME280;11783;50.350;6.576;2023-02-10T11:09:47;98187.75;;;3.44;95.90
23229;BME280;11783;50.350;6.576;2023-02-10T11:14:56;98186.81;;;3.53;95.77
23229;BME280;11783;50.350;6.576;2023-02-10T11:17:37;98183.47;;;3.60;95.62
23229;BME280;11783;50.350;6.576;2023-02-10T11:20:26;98186.91;;;3.61;94.85
23229;BME280;11783;50.350;6.576;2023-02-10T11:23:02;98175.72;;;3.59;94.44
23229;BME280;11783;50.350;6.576;2023-02-10T11:27:53;98180.16;;;3.58;95.49
23229;BME280;11783;50.350;6.576;2023-02-10T11:30:27;98168.66;;;3.59;95.55
23229;BME280;11783;50.350;6.576;2023-02-10T11:32:53;98179.03;;;3.61;96.04
23229;BME280;11783;50.350;6.576;2023-02-10T11:35:19;98169.69;;;3.67;95.68
23229;BME280;11783;50.350;6.576;2023-02-10T11:37:51;98169.63;;;3.76;95.68
23229;BME280;11783;50.350;6.576;2023-02-10T11:40:23;98166.53;;;3.81;95.72
23229;BME280;11783;50.350;6.576;2023-02-10T11:42:53;98151.41;;;3.83;94.94
23229;BME280;11783;50.350;6.576;2023-02-10T11:45:31;98165.47;;;3.91;94.70
23229;BME280;11783;50.350;6.576;2023-02-10T11:48:24;98148.75;;;4.01;93.91
23229;BME280;11783;50.350;6.576;2023-02-10T11:51:13;98163.25;;;4.05;94.10
23229;BME280;11783;50.350;6.576;2023-02-10T11:53:43;98163.09;;;4.06;94.15
23229;BME280;11783;50.350;6.576;2023-02-10T11:56:40;98156.69;;;4.09;93.05
23229;BME280;11783;50.350;6.576;2023-02-10T12:05:06;98147.00;;;4.09;93.08
23229;BME280;11783;50.350;6.576;2023-02-10T12:10:41;98139.47;;;4.14;92.87
23229;BME280;11783;50.350;6.576;2023-02-10T12:15:55;98135.88;;;4.23;92.23
23229;BME280;11783;50.350;6.576;2023-02-10T12:21:39;98121.31;;;4.37;92.43
23229;BME280;11783;50.350;6.576;2023-02-10T12:24:44;98107.84;;;4.40;90.20
23229;BME280;11783;50.350;6.576;2023-02-10T12:30:28;98110.72;;;4.55;88.51
23229;BME280;11783;50.350;6.576;2023-02-10T12:33:00;98108.75;;;4.57;89.79
23229;BME280;11783;50.350;6.576;2023-02-10T12:35:59;98105.47;;;4.63;85.36
23229;BME280;11783;50.350;6.576;2023-02-10T12:41:17;98111.44;;;4.73;86.48
23229;BME280;11783;50.350;6.576;2023-02-10T12:43:59;98107.47;;;4.69;84.37
23229;BME280;11783;50.350;6.576;2023-02-10T12:54:43;98105.81;;;4.68;84.62
23229;BME280;11783;50.350;6.576;2023-02-10T12:57:20;98101.88;;;4.72;84.95
23229;BME280;11783;50.350;6.576;2023-02-10T13:00:12;98100.09;;;4.81;86.97
23229;BME280;11783;50.350;6.576;2023-02-10T13:05:06;98102.97;;;5.12;84.22
23229;BME280;11783;50.350;6.576;2023-02-10T13:07:56;98102.81;;;5.22;84.06
23229;BME280;11783;50.350;6.576;2023-02-10T13:10:41;98095.56;;;5.24;82.60
23229;BME280;11783;50.350;6.576;2023-02-10T13:13:23;98096.38;;;5.32;84.22
23229;BME280;11783;50.350;6.576;2023-02-10T13:16:03;98086.66;;;5.49;82.68
23229;BME280;11783;50.350;6.576;2023-02-10T13:18:32;98092.44;;;5.61;82.18
23229;BME280;11783;50.350;6.576;2023-02-10T13:34:34;98076.25;;;5.72;77.15
23229;BME280;11783;50.350;6.576;2023-02-10T13:37:37;98073.97;;;5.69;79.77
23229;BME280;11783;50.350;6.576;2023-02-10T13:40:25;98068.00;;;5.83;78.34
23229;BME280;11783;50.350;6.576;2023-02-10T13:42:56;98062.38;;;5.94;77.73
23229;BME280;11783;50.350;6.576;2023-02-10T13:45:33;98059.75;;;6.02;77.74
23229;BME280;11783;50.350;6.576;2023-02-10T13:48:02;98059.41;;;6.14;76.48
23229;BME280;11783;50.350;6.576;2023-02-10T13:50:49;98059.69;;;6.19;75.76
23229;BME280;11783;50.350;6.576;2023-02-10T13:53:39;98057.19;;;6.25;74.14
23229;BME280;11783;50.350;6.576;2023-02-10T13:58:55;98052.03;;;6.40;73.17
23229;BME280;11783;50.350;6.576;2023-02-10T14:01:33;98049.22;;;6.42;74.45
23229;BME280;11783;50.350;6.576;2023-02-10T14:03:59;98053.63;;;6.49;74.16
23229;BME280;11783;50.350;6.576;2023-02-10T14:06:40;98051.59;;;6.59;73.90
23229;BME280;11783;50.350;6.576;2023-02-10T14:11:43;98054.84;;;6.70;72.82
23229;BME280;11783;50.350;6.576;2023-02-10T14:14:24;98054.44;;;6.81;71.42
23229;BME280;11783;50.350;6.576;2023-02-10T14:16:51;98051.78;;;6.89;73.39
23229;BME280;11783;50.350;6.576;2023-02-10T14:19:37;98052.00;;;7.02;73.36
23229;BME280;11783;50.350;6.576;2023-02-10T14:22:04;98060.72;;;7.11;72.41
23229;BME280;11783;50.350;6.576;2023-02-10T14:24:35;98065.09;;;7.18;69.96
23229;BME280;11783;50.350;6.576;2023-02-10T14:27:03;98058.94;;;7.26;70.08
23229;BME280;11783;50.350;6.576;2023-02-10T14:29:33;98050.53;;;7.45;72.48
23229;BME280;11783;50.350;6.576;2023-02-10T14:32:01;98049.13;;;7.72;71.11
23229;BME280;11783;50.350;6.576;2023-02-10T14:34:36;98041.94;;;8.10;71.98
23229;BME280;11783;50.350;6.576;2023-02-10T14:37:18;98036.66;;;8.40;70.55
23229;BME280;11783;50.350;6.576;2023-02-10T14:39:58;98038.41;;;8.69;65.85
23229;BME280;11783;50.350;6.576;2023-02-10T14:42:29;98028.97;;;8.81;66.87
23229;BME280;11783;50.350;6.576;2023-02-10T14:45:01;98042.38;;;8.94;66.29
23229;BME280;11783;50.350;6.576;2023-02-10T14:47:33;98037.81;;;8.88;63.83
23229;BME280;11783;50.350;6.576;2023-02-10T14:49:59;98033.31;;;8.67;64.52
23229;BME280;11783;50.350;6.576;2023-02-10T14:52:32;98028.56;;;8.33;64.19
23229;BME280;11783;50.350;6.576;2023-02-10T14:54:58;98041.28;;;8.23;66.59
23229;BME280;11783;50.350;6.576;2023-02-10T14:57:26;98039.09;;;8.12;66.65
23229;BME280;11783;50.350;6.576;2023-02-10T15:00:01;98032.25;;;7.88;67.04
23229;BME280;11783;50.350;6.576;2023-02-10T15:02:29;98041.00;;;7.74;67.30